Time;durP1;ratioP1;P1;durP2;ratioP2;P2;SDS_P1;SDS_P2;PMS_P1;PMS_P2;Temp;Humidity;BMP_temperature;BMP_pressure;BME280_temperature;BME280_humidity;BME280_pressure;Samples;Min_cycle;Max_cycle;Signal;HPM_P1;HPM_P2
2023/06/22 00:01:53;;;;;;;17.38;6.82;;;12.40;99.90;;;;;;5063496;28;20032;-86
2023/06/22 00:04:19;;;;;;;15.02;6.50;;;12.40;99.90;;;;;;5063382;28;20020;-87
2023/06/22 00:06:45;;;;;;;14.45;6.65;;;12.40;99.90;;;;;;5056529;28;20031;-86
2023/06/22 00:09:10;;;;;;;20.55;6.80;;;12.30;99.90;;;;;;5062821;28;20025;-88
2023/06/22 00:11:38;;;;;;;18.05;7.20;;;12.30;99.90;;;;;;5055691;28;20476;-87
2023/06/22 00:14:04;;;;;;;14.18;7.38;;;12.30;99.90;;;;;;5055412;28;20086;-87
2023/06/22 00:16:32;;;;;;;22.98;7.90;;;12.30;99.90;;;;;;5055226;28;20411;-88
2023/06/22 00:19:00;;;;;;;18.10;7.95;;;12.20;99.90;;;;;;5055196;28;20362;-88
2023/06/22 00:21:29;;;;;;;15.05;6.93;;;12.20;99.90;;;;;;5055240;28;20032;-87
2023/06/22 00:23:55;;;;;;;16.88;6.75;;;12.20;99.90;;;;;;5055568;28;20025;-88
2023/06/22 00:26:21;;;;;;;17.90;6.93;;;12.20;99.90;;;;;;5055046;28;20013;-88
2023/06/22 00:28:47;;;;;;;17.17;6.68;;;12.10;99.90;;;;;;5055571;28;20033;-87
2023/06/22 00:31:13;;;;;;;18.88;7.32;;;12.10;99.90;;;;;;5054238;28;20027;-87
2023/06/22 00:33:39;;;;;;;24.60;9.00;;;12.10;99.90;;;;;;5055381;28;20326;-87
2023/06/22 00:36:07;;;;;;;19.40;7.35;;;12.00;99.90;;;;;;5055708;28;20027;-89
2023/06/22 00:38:33;;;;;;;20.35;6.72;;;12.00;99.90;;;;;;5055068;28;20021;-88
2023/06/22 00:40:59;;;;;;;23.90;8.25;;;12.00;99.90;;;;;;5054296;28;20534;-88
2023/06/22 00:43:24;;;;;;;31.40;8.70;;;12.00;99.90;;;;;;5054919;28;20032;-87
2023/06/22 00:45:50;;;;;;;23.40;8.25;;;12.00;99.90;;;;;;5054164;28;20059;-87
2023/06/22 00:48:16;;;;;;;23.48;7.93;;;12.00;99.90;;;;;;5054407;28;20040;-88
2023/06/22 00:50:42;;;;;;;20.17;7.22;;;12.00;99.90;;;;;;5054491;28;20024;-88
2023/06/22 00:53:09;;;;;;;26.90;7.68;;;11.90;99.90;;;;;;5054101;28;20028;-87
2023/06/22 00:55:42;;;;;;;26.98;7.53;;;11.90;99.90;;;;;;5052587;28;20021;-89
2023/06/22 00:58:10;;;;;;;25.73;8.27;;;11.80;99.90;;;;;;5055160;28;20029;-88
2023/06/22 01:00:36;;;;;;;34.88;9.48;;;11.80;99.90;;;;;;5081127;22;20127;-86
2023/06/22 01:03:03;;;;;;;30.33;8.27;;;11.80;99.90;;;;;;5052764;28;20024;-85
2023/06/22 01:05:31;;;;;;;27.85;7.95;;;11.70;99.90;;;;;;5071121;28;20056;-84
2023/06/22 01:08:04;;;;;;;31.05;8.05;;;11.70;99.90;;;;;;5070738;28;20039;-85
2023/06/22 01:10:39;;;;;;;28.35;7.72;;;11.60;99.90;;;;;;5042766;28;20029;-85
2023/06/22 01:13:14;;;;;;;28.85;8.65;;;11.60;99.90;;;;;;5057176;28;20079;-85
2023/06/22 01:15:49;;;;;;;39.25;9.55;;;11.60;99.90;;;;;;5052054;28;20032;-84
2023/06/22 01:18:18;;;;;;;46.35;9.95;;;11.60;99.90;;;;;;5052131;28;20052;-85
2023/06/22 01:20:44;;;;;;;49.05;10.35;;;11.60;99.90;;;;;;5057399;28;20021;-85
2023/06/22 01:23:49;;;;;;;51.90;10.45;;;11.70;99.90;;;;;;5034418;28;20021;-85
2023/06/22 01:26:28;;;;;;;41.85;9.07;;;11.80;99.90;;;;;;5040437;28;20497;-85
2023/06/22 01:28:57;;;;;;;47.10;11.77;;;11.90;99.90;;;;;;5033929;28;20465;-86
2023/06/22 01:31:26;;;;;;;45.13;9.95;;;12.00;99.90;;;;;;5052274;28;20070;-85
2023/06/22 01:33:55;;;;;;;38.47;9.77;;;12.10;99.90;;;;;;5034405;28;20029;-85
2023/06/22 01:36:23;;;;;;;29.60;7.75;;;12.10;99.90;;;;;;5052123;28;20021;-85
2023/06/22 01:38:50;;;;;;;50.80;9.63;;;12.20;99.90;;;;;;5033677;28;20118;-85
2023/06/22 01:41:20;;;;;;;56.63;10.70;;;12.20;99.90;;;;;;5052467;28;20017;-85
2023/06/22 01:43:47;;;;;;;56.13;11.67;;;12.30;99.90;;;;;;5052297;28;20013;-85
2023/06/22 01:46:14;;;;;;;49.05;10.30;;;12.30;99.90;;;;;;5051819;28;20013;-85
2023/06/22 01:48:40;;;;;;;49.50;10.13;;;12.40;99.90;;;;;;5044919;28;20508;-85
2023/06/22 01:51:06;;;;;;;56.83;9.73;;;12.50;99.90;;;;;;5051848;28;20477;-85
2023/06/22 01:53:32;;;;;;;58.10;9.40;;;12.60;99.90;;;;;;5033764;28;20029;-86
2023/06/22 01:55:58;;;;;;;63.38;10.27;;;12.60;99.90;;;;;;5033715;28;20024;-85
2023/06/22 01:58:27;;;;;;;82.32;11.10;;;12.70;99.90;;;;;;5051528;28;20470;-85
2023/06/22 02:01:10;;;;;;;68.97;10.55;;;12.80;99.90;;;;;;5091256;22;20029;-87
2023/06/22 02:03:41;;;;;;;57.15;9.65;;;12.80;99.90;;;;;;5056057;28;20020;-87
2023/06/22 02:06:10;;;;;;;66.07;8.85;;;12.90;99.90;;;;;;5072169;28;20060;-90
2023/06/22 02:08:41;;;;;;;47.50;8.35;;;12.90;99.90;;;;;;5062038;28;20124;-88
2023/06/22 02:11:09;;;;;;;90.47;12.50;;;12.90;99.90;;;;;;5056984;28;20009;-87
2023/06/22 02:13:37;;;;;;;108.75;14.10;;;13.00;99.90;;;;;;5050641;28;20116;-88
2023/06/22 02:16:03;;;;;;;92.03;13.07;;;13.00;99.90;;;;;;5050396;28;20017;-88
2023/06/22 02:18:29;;;;;;;73.25;10.38;;;13.00;99.90;;;;;;5051229;28;20025;-88
2023/06/22 02:20:55;;;;;;;76.03;10.95;;;13.10;99.90;;;;;;5054415;28;20036;-89
2023/06/22 02:23:21;;;;;;;72.70;9.25;;;13.10;99.90;;;;;;5053184;28;20580;-89
2023/06/22 02:25:47;;;;;;;77.95;10.82;;;13.10;99.90;;;;;;5051088;28;20025;-87
2023/06/22 02:28:13;;;;;;;61.78;8.75;;;13.10;99.90;;;;;;5053931;28;20024;-87
2023/06/22 02:30:38;;;;;;;64.15;9.05;;;13.20;99.90;;;;;;5047928;28;20366;-87
2023/06/22 02:33:04;;;;;;;46.40;7.35;;;13.20;99.90;;;;;;5059812;28;20417;-88
2023/06/22 02:35:35;;;;;;;35.63;6.93;;;13.20;99.90;;;;;;5049851;28;20021;-87
2023/06/22 02:38:02;;;;;;;47.15;7.10;;;13.10;99.90;;;;;;5049038;28;20358;-87
2023/06/22 02:40:32;;;;;;;45.42;6.82;;;13.10;99.90;;;;;;5050623;28;20090;-88
2023/06/22 02:43:01;;;;;;;48.72;8.00;;;13.10;99.90;;;;;;5052133;28;20013;-88
2023/06/22 02:45:27;;;;;;;44.72;7.53;;;13.10;99.90;;;;;;5042454;28;20033;-88
2023/06/22 02:47:52;;;;;;;58.38;7.05;;;13.10;99.90;;;;;;5049806;28;20784;-88
2023/06/22 02:50:18;;;;;;;49.90;7.65;;;13.10;99.90;;;;;;5052322;28;20017;-87
2023/06/22 02:52:44;;;;;;;56.33;8.70;;;13.00;99.90;;;;;;5046993;28;20029;-88
2023/06/22 02:55:09;;;;;;;48.03;7.90;;;13.00;99.90;;;;;;5048142;28;20021;-88
2023/06/22 02:57:35;;;;;;;55.10;8.98;;;13.00;99.90;;;;;;5049936;28;20048;-88
2023/06/22 03:00:13;;;;;;;50.45;7.45;;;13.00;99.90;;;;;;5085035;22;20045;-84
2023/06/22 03:02:39;;;;;;;43.13;6.43;;;13.00;99.90;;;;;;5057139;28;20063;-84
2023/06/22 03:05:06;;;;;;;48.50;6.88;;;13.00;99.90;;;;;;5074539;28;20044;-85
2023/06/22 03:07:31;;;;;;;52.10;7.55;;;13.00;99.90;;;;;;5056661;28;20025;-83
2023/06/22 03:09:57;;;;;;;52.47;7.70;;;13.00;99.90;;;;;;5056723;28;20025;-83
2023/06/22 03:12:22;;;;;;;54.85;7.40;;;13.00;99.90;;;;;;5074268;28;20572;-83
2023/06/22 03:14:48;;;;;;;55.78;6.97;;;13.10;99.90;;;;;;5073784;28;20047;-83
2023/06/22 03:17:14;;;;;;;41.42;6.93;;;13.10;99.90;;;;;;5074616;28;20013;-83
2023/06/22 03:19:39;;;;;;;36.72;6.95;;;13.10;99.90;;;;;;5074235;28;20028;-83
2023/06/22 03:22:06;;;;;;;52.67;7.90;;;13.10;99.90;;;;;;5056475;28;20031;-83
2023/06/22 03:24:34;;;;;;;55.22;7.55;;;13.10;99.90;;;;;;5056480;28;20017;-83
2023/06/22 03:27:00;;;;;;;46.90;7.45;;;13.20;99.90;;;;;;5074387;28;20381;-83
2023/06/22 03:29:25;;;;;;;60.47;8.77;;;13.20;99.90;;;;;;5073638;28;20029;-83
2023/06/22 03:31:51;;;;;;;51.95;8.60;;;13.30;99.90;;;;;;5056203;28;20021;-82
2023/06/22 03:34:17;;;;;;;50.17;7.65;;;13.30;99.90;;;;;;5073896;28;20029;-83
2023/06/22 03:36:45;;;;;;;102.43;13.27;;;13.40;99.90;;;;;;5081093;28;20029;-83
2023/06/22 03:39:10;;;;;;;71.90;10.82;;;13.50;99.90;;;;;;5074260;28;20016;-82
2023/06/22 03:41:36;;;;;;;68.95;11.05;;;13.50;99.90;;;;;;5074223;28;20028;-82
2023/06/22 03:44:01;;;;;;;40.78;7.90;;;13.60;99.90;;;;;;5073957;28;20020;-81
2023/06/22 03:46:27;;;;;;;52.22;9.05;;;13.60;99.90;;;;;;5074111;28;20024;-82
2023/06/22 03:48:53;;;;;;;46.60;7.68;;;13.60;99.90;;;;;;5073896;28;20102;-82
2023/06/22 03:51:19;;;;;;;63.50;10.93;;;13.70;99.90;;;;;;5073942;28;20048;-82
2023/06/22 03:53:44;;;;;;;43.08;8.48;;;13.80;99.90;;;;;;5073599;28;20103;-82
2023/06/22 03:56:10;;;;;;;55.78;8.98;;;13.80;99.90;;;;;;5073693;28;20016;-82
2023/06/22 03:58:36;;;;;;;55.50;9.50;;;13.90;99.90;;;;;;5073711;28;20361;-82
2023/06/22 04:01:02;;;;;;;67.05;10.07;;;13.90;99.90;;;;;;5073036;28;20051;-82
2023/06/22 04:03:28;;;;;;;51.40;6.75;;;14.00;99.90;;;;;;5073897;28;20056;-82
2023/06/22 04:05:53;;;;;;;39.92;6.13;;;14.00;99.90;;;;;;5073687;28;20090;-82
2023/06/22 04:08:19;;;;;;;50.10;8.18;;;14.10;99.90;;;;;;5073726;28;20039;-83
2023/06/22 04:10:45;;;;;;;81.40;10.93;;;14.10;99.90;;;;;;5073656;28;20020;-82
2023/06/22 04:13:10;;;;;;;46.72;6.75;;;14.20;99.90;;;;;;5073498;28;20037;-82
2023/06/22 04:15:36;;;;;;;59.35;9.45;;;14.20;99.90;;;;;;5072920;28;20091;-82
2023/06/22 04:18:02;;;;;;;41.38;7.07;;;14.30;99.90;;;;;;5073543;28;20143;-82
2023/06/22 04:20:27;;;;;;;42.67;6.05;;;14.30;99.90;;;;;;5055406;28;20380;-82
2023/06/22 04:22:54;;;;;;;46.88;8.23;;;14.40;99.90;;;;;;5073675;28;20020;-82
2023/06/22 04:25:20;;;;;;;46.10;6.55;;;14.40;99.90;;;;;;5055070;28;20188;-82
2023/06/22 04:27:46;;;;;;;41.72;6.97;;;14.50;99.90;;;;;;5055106;28;20560;-82
2023/06/22 04:30:14;;;;;;;51.15;7.82;;;14.50;99.90;;;;;;5097092;22;20052;-79
2023/06/22 04:32:40;;;;;;;32.38;6.47;;;14.60;99.90;;;;;;5073881;28;20022;-79
2023/06/22 04:35:06;;;;;;;38.38;5.25;;;14.60;99.90;;;;;;5073533;28;20377;-78
2023/06/22 04:37:33;;;;;;;37.42;5.63;;;14.70;99.90;;;;;;5073429;28;20027;-79
2023/06/22 04:39:59;;;;;;;39.80;5.93;;;14.70;99.90;;;;;;5057960;28;20078;-78
2023/06/22 04:42:27;;;;;;;38.72;6.80;;;14.70;99.90;;;;;;5092518;28;20497;-79
2023/06/22 04:44:53;;;;;;;52.75;7.90;;;14.70;99.90;;;;;;5085259;28;20500;-79
2023/06/22 04:47:19;;;;;;;31.85;6.03;;;14.70;99.90;;;;;;5091975;28;20023;-79
2023/06/22 04:49:45;;;;;;;35.38;6.25;;;14.80;99.90;;;;;;5091851;28;20028;-79
2023/06/22 04:52:12;;;;;;;29.70;6.50;;;14.90;99.90;;;;;;5092327;28;20407;-78
2023/06/22 04:54:40;;;;;;;33.83;6.75;;;14.90;99.90;;;;;;5091890;28;20020;-79
2023/06/22 04:57:10;;;;;;;36.05;6.47;;;14.80;99.90;;;;;;5092518;28;20077;-78
2023/06/22 04:59:38;;;;;;;28.85;6.57;;;14.80;99.90;;;;;;5091797;28;20388;-78
2023/06/22 05:02:05;;;;;;;40.03;7.13;;;14.80;99.90;;;;;;5091230;28;20472;-78
2023/06/22 05:04:31;;;;;;;54.78;7.55;;;14.80;99.90;;;;;;5091438;28;20052;-79
2023/06/22 05:06:58;;;;;;;37.95;6.72;;;14.70;99.90;;;;;;5092037;28;20074;-79
2023/06/22 05:09:24;;;;;;;44.22;6.80;;;14.70;99.90;;;;;;5091589;28;20036;-79
2023/06/22 05:11:51;;;;;;;31.23;5.55;;;14.70;99.90;;;;;;5091400;28;20066;-79
2023/06/22 05:14:17;;;;;;;28.38;4.97;;;14.60;99.90;;;;;;5091479;28;20029;-79
2023/06/22 05:16:43;;;;;;;26.08;5.25;;;14.60;99.90;;;;;;5091665;28;20023;-79
2023/06/22 05:19:09;;;;;;;33.63;5.45;;;14.50;99.90;;;;;;5091513;28;20016;-78
2023/06/22 05:21:35;;;;;;;20.50;4.55;;;14.50;99.90;;;;;;5091916;28;20027;-78
2023/06/22 05:24:02;;;;;;;21.83;5.25;;;14.60;99.90;;;;;;5084361;28;20027;-79
2023/06/22 05:26:28;;;;;;;26.38;6.38;;;14.60;99.90;;;;;;5091712;28;20032;-79
2023/06/22 05:31:31;;;;;;;24.83;5.40;;;14.70;99.90;;;;;;5051895;28;20113;-82
2023/06/22 05:33:57;;;;;;;22.20;5.40;;;14.80;99.90;;;;;;5035427;28;20632;-82
2023/06/22 05:36:26;;;;;;;24.25;5.22;;;14.90;99.90;;;;;;5050578;28;20698;-82
2023/06/22 05:38:52;;;;;;;21.90;5.55;;;15.00;99.90;;;;;;5051214;28;20029;-83
2023/06/22 05:41:19;;;;;;;35.70;7.32;;;15.10;99.90;;;;;;5031990;28;20094;-83
2023/06/22 05:43:44;;;;;;;33.63;6.88;;;15.30;99.90;;;;;;5029325;28;20505;-83
2023/06/22 05:46:10;;;;;;;51.08;9.52;;;15.50;99.90;;;;;;5018752;28;20089;-81
2023/06/22 05:48:36;;;;;;;52.05;8.93;;;15.60;99.90;;;;;;5038971;28;20519;-82
2023/06/22 05:51:01;;;;;;;61.42;13.15;;;15.80;99.90;;;;;;5031563;28;20079;-82
2023/06/22 05:53:27;;;;;;;56.05;9.63;;;15.90;99.90;;;;;;5031296;28;20022;-82
2023/06/22 05:55:53;;;;;;;37.75;8.15;;;16.00;99.90;;;;;;5030800;28;20029;-82
2023/06/22 05:58:18;;;;;;;37.83;7.70;;;16.10;99.90;;;;;;5032340;28;20021;-82
2023/06/22 06:00:44;;;;;;;32.28;7.70;;;16.30;99.90;;;;;;5038473;28;20131;-82
2023/06/22 06:03:10;;;;;;;35.00;8.40;;;16.40;99.90;;;;;;5030656;28;20025;-82
2023/06/22 06:05:37;;;;;;;37.47;8.43;;;16.50;99.90;;;;;;5038922;28;20021;-82
2023/06/22 06:08:05;;;;;;;37.80;8.25;;;16.70;99.90;;;;;;5031116;28;20033;-81
2023/06/22 06:10:35;;;;;;;34.47;8.68;;;16.70;99.90;;;;;;5038263;28;20036;-81
2023/06/22 06:13:04;;;;;;;35.00;8.65;;;16.80;99.90;;;;;;5031835;28;20643;-81
2023/06/22 06:15:31;;;;;;;29.85;7.97;;;16.90;99.90;;;;;;5032453;28;20056;-81
2023/06/22 06:17:56;;;;;;;35.65;9.55;;;17.00;99.90;;;;;;5037560;28;20377;-82
2023/06/22 06:20:25;;;;;;;31.75;8.45;;;17.00;99.90;;;;;;5031582;28;20037;-82
2023/06/22 06:22:50;;;;;;;35.55;8.50;;;17.20;99.90;;;;;;5028179;28;20021;-82
2023/06/22 06:25:16;;;;;;;37.72;8.80;;;17.20;99.90;;;;;;5031342;28;20021;-82
2023/06/22 06:27:43;;;;;;;30.50;8.55;;;17.40;99.90;;;;;;5038857;28;20013;-82
2023/06/22 06:30:11;;;;;;;28.77;8.93;;;17.50;99.90;;;;;;5058720;22;20040;-78
2023/06/22 06:32:38;;;;;;;37.35;12.88;;;17.70;99.90;;;;;;5050315;28;20131;-79
2023/06/22 06:35:05;;;;;;;30.38;10.52;;;17.70;99.90;;;;;;5049438;28;20021;-79
2023/06/22 06:37:31;;;;;;;32.50;10.35;;;17.70;99.90;;;;;;5049918;28;20488;-78
2023/06/22 06:39:57;;;;;;;23.17;9.55;;;17.80;99.90;;;;;;5050148;28;20055;-79
2023/06/22 06:42:24;;;;;;;26.27;11.38;;;18.00;99.90;;;;;;5049982;28;20104;-79
2023/06/22 06:44:50;;;;;;;30.80;12.02;;;18.10;99.90;;;;;;5049566;28;21379;-79
2023/06/22 06:47:16;;;;;;;23.73;10.68;;;18.20;99.90;;;;;;5049392;28;20020;-79
2023/06/22 06:49:42;;;;;;;57.97;24.48;;;18.40;99.90;;;;;;5042415;28;20053;-79
2023/06/22 06:52:08;;;;;;;48.55;23.00;;;18.50;99.90;;;;;;5050243;28;20057;-78
2023/06/22 06:54:34;;;;;;;77.70;36.65;;;18.60;99.90;;;;;;5050034;28;20025;-78
2023/06/22 06:57:00;;;;;;;402.42;196.00;;;18.80;99.90;;;;;;5042653;28;20074;-79
2023/06/22 06:59:25;;;;;;;158.57;73.80;;;18.80;99.90;;;;;;5049629;28;20029;-78
2023/06/22 07:01:51;;;;;;;41.38;21.85;;;18.80;99.90;;;;;;5049503;28;20020;-79
2023/06/22 07:04:17;;;;;;;52.13;29.67;;;18.80;99.90;;;;;;5049397;28;20020;-79
2023/06/22 07:06:43;;;;;;;119.25;70.15;;;18.90;99.90;;;;;;5049476;28;20074;-79
2023/06/22 07:09:08;;;;;;;109.10;66.75;;;18.90;99.90;;;;;;5049677;28;20033;-79
2023/06/22 07:11:35;;;;;;;55.10;34.55;;;19.10;99.90;;;;;;5049286;28;20021;-79
2023/06/22 07:14:01;;;;;;;37.80;19.65;;;19.30;99.90;;;;;;5048827;28;20129;-79
2023/06/22 07:16:27;;;;;;;29.05;18.23;;;19.50;99.90;;;;;;5048130;28;20104;-86
2023/06/22 07:18:53;;;;;;;27.15;13.60;;;19.60;99.90;;;;;;5064298;28;20124;-80
2023/06/22 07:21:19;;;;;;;16.65;11.02;;;19.60;99.90;;;;;;5049341;28;20534;-88
2023/06/22 07:23:45;;;;;;;22.33;11.32;;;19.70;99.90;;;;;;5049770;28;20029;-78
2023/06/22 07:26:12;;;;;;;21.88;9.70;;;19.70;99.90;;;;;;5049745;28;20009;-78
2023/06/22 07:28:40;;;;;;;17.45;8.60;;;19.80;99.90;;;;;;5049212;28;20037;-78
2023/06/22 07:31:06;;;;;;;19.75;9.90;;;19.80;99.90;;;;;;5067615;22;20049;-79
2023/06/22 07:33:31;;;;;;;18.17;9.40;;;19.90;99.90;;;;;;5048751;28;20025;-78
2023/06/22 07:35:57;;;;;;;17.63;10.27;;;19.90;99.70;;;;;;5049784;28;20466;-80
2023/06/22 07:38:23;;;;;;;16.48;9.63;;;19.90;98.80;;;;;;5052629;28;20052;-79
2023/06/22 07:40:50;;;;;;;11.88;8.18;;;19.90;97.30;;;;;;5034332;28;20029;-79
2023/06/22 07:43:16;;;;;;;17.75;10.43;;;19.90;96.90;;;;;;5032981;28;20017;-80
2023/06/22 07:45:55;;;;;;;13.82;8.00;;;19.90;96.00;;;;;;5033144;28;20084;-80
2023/06/22 07:48:22;;;;;;;17.38;8.95;;;20.00;95.30;;;;;;5033698;28;20029;-79
2023/06/22 07:50:48;;;;;;;13.63;7.70;;;20.10;94.30;;;;;;5039684;28;20021;-80
2023/06/22 07:53:13;;;;;;;13.50;7.45;;;20.10;92.90;;;;;;5034223;28;20009;-79
2023/06/22 07:55:39;;;;;;;15.25;8.27;;;20.20;93.10;;;;;;5033920;28;20545;-79
2023/06/22 07:58:04;;;;;;;15.95;9.35;;;20.30;93.20;;;;;;5033749;28;20096;-79
2023/06/22 08:00:30;;;;;;;14.45;7.68;;;20.30;92.70;;;;;;5034362;28;20124;-82
2023/06/22 08:02:56;;;;;;;13.07;8.68;;;20.20;91.60;;;;;;5036231;28;20021;-78
2023/06/22 08:05:21;;;;;;;13.00;8.20;;;20.10;90.90;;;;;;5045681;28;20029;-78
2023/06/22 08:07:48;;;;;;;13.10;7.82;;;20.00;91.70;;;;;;5038635;28;20435;-78
2023/06/22 08:10:14;;;;;;;16.65;7.43;;;19.90;92.30;;;;;;5042426;28;20550;-79
2023/06/22 08:12:40;;;;;;;18.85;11.25;;;19.80;92.80;;;;;;5037475;28;20100;-83
2023/06/22 08:15:07;;;;;;;14.95;9.88;;;19.80;92.70;;;;;;5035050;28;20486;-80
2023/06/22 08:17:33;;;;;;;23.45;11.60;;;19.80;93.00;;;;;;5041095;28;20029;-84
2023/06/22 08:19:59;;;;;;;15.40;9.23;;;19.90;92.70;;;;;;5038644;28;20052;-81
2023/06/22 08:22:25;;;;;;;12.43;7.88;;;20.10;92.60;;;;;;5039942;28;20064;-76
2023/06/22 08:24:51;;;;;;;14.68;8.73;;;20.20;91.40;;;;;;5035810;28;20021;-79
2023/06/22 08:27:18;;;;;;;10.38;6.75;;;20.30;90.90;;;;;;5033266;28;20040;-80
2023/06/22 08:29:45;;;;;;;11.43;7.15;;;20.40;91.30;;;;;;5058486;22;20091;-84
2023/06/22 08:32:12;;;;;;;10.88;6.63;;;20.60;91.10;;;;;;5037859;28;20019;-86
2023/06/22 08:34:42;;;;;;;10.43;7.03;;;20.70;91.30;;;;;;5027328;28;20050;-87
2023/06/22 08:37:11;;;;;;;12.15;6.85;;;21.00;90.40;;;;;;5041695;28;20012;-85
2023/06/22 08:39:36;;;;;;;8.80;5.88;;;21.30;90.30;;;;;;5019143;28;20485;-83
2023/06/22 08:42:02;;;;;;;9.05;4.82;;;21.70;87.60;;;;;;5035866;28;20106;-86
2023/06/22 08:44:28;;;;;;;8.50;4.50;;;22.30;80.60;;;;;;5021857;28;20045;-81
2023/06/22 08:46:54;;;;;;;6.82;3.95;;;23.10;79.00;;;;;;5040126;28;20478;-85
2023/06/22 08:49:19;;;;;;;5.22;3.70;;;23.90;76.70;;;;;;5039828;28;20470;-83
2023/06/22 08:51:47;;;;;;;3.65;2.58;;;24.80;70.70;;;;;;5026977;28;20076;-83
2023/06/22 08:54:13;;;;;;;3.97;2.88;;;25.60;71.70;;;;;;5039431;28;20029;-84
2023/06/22 08:56:39;;;;;;;3.22;2.70;;;26.50;69.70;;;;;;5039423;28;20411;-84
2023/06/22 08:59:07;;;;;;;6.63;3.75;;;27.40;65.30;;;;;;5035722;28;20616;-84
2023/06/22 09:01:33;;;;;;;4.50;2.60;;;28.20;54.80;;;;;;5049387;28;20031;-85
2023/06/22 09:03:59;;;;;;;3.55;2.40;;;28.90;55.20;;;;;;5033392;28;20037;-85
2023/06/22 09:06:25;;;;;;;2.78;2.25;;;29.50;55.30;;;;;;5038422;28;20027;-84
2023/06/22 09:08:51;;;;;;;4.90;2.13;;;30.20;55.50;;;;;;5039621;28;20009;-85
2023/06/22 09:11:17;;;;;;;3.33;1.98;;;30.90;52.80;;;;;;5038641;28;20025;-87
2023/06/22 09:13:42;;;;;;;1.80;1.40;;;31.80;50.50;;;;;;5034093;28;20029;-85
2023/06/22 09:16:08;;;;;;;1.98;1.55;;;32.50;43.00;;;;;;5041439;28;20469;-83
2023/06/22 09:18:35;;;;;;;2.42;1.40;;;33.20;42.30;;;;;;5042428;28;20037;-85
2023/06/22 09:21:02;;;;;;;2.70;2.13;;;33.70;44.20;;;;;;5027668;28;20017;-84
2023/06/22 09:23:27;;;;;;;2.75;1.50;;;34.10;40.10;;;;;;5035909;28;20036;-83
2023/06/22 09:25:53;;;;;;;1.75;1.20;;;34.30;36.90;;;;;;5025056;28;20021;-79
2023/06/22 09:28:19;;;;;;;2.13;1.40;;;34.30;33.90;;;;;;5043189;28;20063;-86
2023/06/22 09:30:45;;;;;;;1.98;1.40;;;34.50;37.40;;;;;;5053214;22;20024;-83
2023/06/22 09:33:11;;;;;;;2.83;1.30;;;34.80;35.30;;;;;;5071201;28;20012;-85
2023/06/22 09:35:36;;;;;;;1.60;1.27;;;34.90;32.30;;;;;;5071537;28;20031;-83
2023/06/22 09:38:02;;;;;;;2.20;1.65;;;34.90;34.70;;;;;;5070810;28;20381;-81
2023/06/22 09:40:28;;;;;;;2.03;1.83;;;35.20;36.60;;;;;;5072902;28;20035;-84
2023/06/22 09:42:54;;;;;;;1.73;1.50;;;35.70;38.30;;;;;;5071867;28;20013;-85
2023/06/22 09:45:19;;;;;;;1.80;1.50;;;36.30;32.80;;;;;;5071541;28;20078;-84
2023/06/22 09:47:45;;;;;;;1.75;1.65;;;36.60;32.10;;;;;;5071146;28;20656;-86
2023/06/22 09:50:11;;;;;;;2.70;1.98;;;37.20;34.50;;;;;;5071380;28;20024;-85
2023/06/22 09:52:36;;;;;;;2.17;1.60;;;37.90;35.80;;;;;;5071425;28;20070;-82
2023/06/22 09:55:03;;;;;;;1.75;1.63;;;38.50;35.80;;;;;;5071622;28;20016;-83
2023/06/22 09:57:29;;;;;;;2.45;1.52;;;38.90;32.60;;;;;;5071661;28;20042;-83
2023/06/22 09:59:55;;;;;;;2.60;1.83;;;39.20;30.80;;;;;;5077667;28;20055;-86
2023/06/22 10:02:22;;;;;;;1.90;1.70;;;39.30;30.20;;;;;;5071839;28;20647;-83
2023/06/22 10:04:48;;;;;;;2.22;1.98;;;39.20;29.40;;;;;;5071816;28;20043;-85
2023/06/22 10:07:14;;;;;;;1.80;1.70;;;39.30;30.40;;;;;;5064043;28;20016;-87
2023/06/22 10:09:39;;;;;;;3.17;1.65;;;39.60;31.40;;;;;;5070853;28;20036;-86
2023/06/22 10:12:05;;;;;;;1.95;1.60;;;40.10;29.50;;;;;;5071586;28;20050;-87
2023/06/22 10:14:31;;;;;;;1.55;1.45;;;40.30;28.70;;;;;;5064172;28;20100;-86
2023/06/22 10:16:57;;;;;;;1.95;1.50;;;40.50;29.20;;;;;;5069350;28;20110;-86
2023/06/22 10:19:22;;;;;;;2.80;1.50;;;40.50;28.10;;;;;;5071509;28;20087;-87
2023/06/22 10:21:48;;;;;;;1.40;1.30;;;40.60;26.80;;;;;;5071212;28;20017;-87
2023/06/22 10:24:14;;;;;;;1.48;1.35;;;40.70;27.80;;;;;;5071232;28;20028;-83
2023/06/22 10:26:39;;;;;;;1.88;1.40;;;41.00;28.60;;;;;;5070975;28;20445;-82
2023/06/22 10:29:05;;;;;;;1.30;1.20;;;41.30;27.10;;;;;;5071369;28;20020;-85
2023/06/22 10:31:31;;;;;;;1.42;1.27;;;41.50;28.00;;;;;;5088822;22;20105;-81
2023/06/22 10:33:56;;;;;;;1.10;1.00;;;41.70;25.10;;;;;;5070542;28;20048;-82
2023/06/22 10:36:23;;;;;;;1.40;1.30;;;41.80;26.40;;;;;;5063533;28;20032;-81
2023/06/22 10:38:49;;;;;;;1.30;1.20;;;41.70;26.00;;;;;;5070208;28;20020;-80
2023/06/22 10:41:15;;;;;;;1.55;1.45;;;41.80;24.50;;;;;;5055396;28;20028;-80
2023/06/22 10:43:40;;;;;;;1.48;1.23;;;41.80;23.90;;;;;;5051068;28;20021;-77
2023/06/22 10:46:06;;;;;;;1.40;1.30;;;41.80;22.70;;;;;;5050778;28;20017;-81
2023/06/22 10:48:32;;;;;;;1.30;1.20;;;41.90;24.70;;;;;;5048709;28;20155;-81
2023/06/22 10:50:58;;;;;;;1.50;1.25;;;42.20;25.20;;;;;;5048425;28;20120;-79
2023/06/22 10:53:24;;;;;;;1.65;1.30;;;42.60;25.40;;;;;;5051060;28;20036;-79
2023/06/22 10:55:50;;;;;;;1.52;1.42;;;42.80;25.70;;;;;;5050816;28;20485;-79
2023/06/22 10:58:17;;;;;;;1.27;1.17;;;42.90;24.30;;;;;;5050197;28;20395;-79
2023/06/22 11:00:43;;;;;;;1.67;0.82;;;42.90;22.30;;;;;;5049917;28;20021;-80
2023/06/22 11:03:09;;;;;;;1.10;1.00;;;43.10;23.90;;;;;;5050447;28;20032;-78
2023/06/22 11:05:34;;;;;;;1.55;1.20;;;43.30;23.10;;;;;;5048327;28;20025;-79
2023/06/22 11:08:00;;;;;;;1.30;1.10;;;43.50;23.00;;;;;;5050279;28;20051;-79
2023/06/22 11:10:26;;;;;;;1.17;1.13;;;44.00;23.80;;;;;;5048945;28;20135;-80
2023/06/22 11:12:53;;;;;;;0.98;0.98;;;44.50;23.50;;;;;;5054809;28;20032;-79
2023/06/22 11:15:19;;;;;;;1.20;1.10;;;44.80;22.70;;;;;;5054376;28;20024;-79
2023/06/22 11:17:44;;;;;;;0.90;0.90;;;45.10;22.80;;;;;;5054493;28;20025;-79
2023/06/22 11:20:11;;;;;;;1.45;1.25;;;45.40;23.20;;;;;;5054010;28;20100;-79
2023/06/22 11:22:41;;;;;;;1.20;1.10;;;45.70;22.80;;;;;;5054054;28;20058;-82
2023/06/22 11:25:07;;;;;;;1.10;1.00;;;46.10;23.40;;;;;;5054002;28;20029;-80
2023/06/22 11:27:33;;;;;;;2.40;1.45;;;46.30;23.00;;;;;;5054676;28;20075;-83
2023/06/22 11:29:58;;;;;;;1.70;1.60;;;46.40;22.40;;;;;;5078385;22;20409;-92
2023/06/22 11:32:24;;;;;;;1.63;1.52;;;46.70;22.80;;;;;;5058867;28;20040;-85
2023/06/22 11:34:50;;;;;;;1.63;1.50;;;46.90;21.60;;;;;;5073199;28;20016;-90
2023/06/22 11:37:16;;;;;;;3.22;1.50;;;46.90;20.40;;;;;;5073195;28;20046;-87
2023/06/22 11:39:42;;;;;;;1.80;1.70;;;46.80;21.00;;;;;;5071688;28;20036;-86
2023/06/22 11:42:09;;;;;;;2.00;1.80;;;46.90;22.30;;;;;;5073942;28;20013;-83
2023/06/22 11:44:34;;;;;;;3.03;1.98;;;47.10;21.40;;;;;;5072986;28;20024;-87
2023/06/22 11:47:00;;;;;;;2.67;1.70;;;47.30;22.30;;;;;;5072390;28;20031;-84
2023/06/22 11:49:27;;;;;;;1.92;1.70;;;47.40;22.60;;;;;;5072398;28;20036;-86
2023/06/22 11:51:53;;;;;;;1.50;1.40;;;47.70;22.90;;;;;;5073085;28;20499;-89
2023/06/22 11:54:18;;;;;;;1.63;1.52;;;47.90;22.50;;;;;;5073553;28;20020;-86
2023/06/22 11:56:44;;;;;;;1.77;1.67;;;48.10;21.50;;;;;;5063460;28;20047;-84
2023/06/22 11:59:10;;;;;;;1.70;1.60;;;48.20;21.60;;;;;;5072802;28;20040;-85
2023/06/22 12:01:35;;;;;;;2.85;2.10;;;48.40;21.30;;;;;;5069839;28;20070;-83
2023/06/22 12:04:05;;;;;;;4.93;1.73;;;48.30;20.60;;;;;;5072119;28;20024;-86
2023/06/22 12:06:37;;;;;;;2.15;1.95;;;48.20;21.80;;;;;;5056557;28;20028;-93
2023/06/22 12:09:04;;;;;;;2.42;2.00;;;48.20;20.90;;;;;;5069161;28;20025;-87
2023/06/22 12:11:30;;;;;;;2.03;1.70;;;48.40;21.60;;;;;;5070130;28;20373;-84
2023/06/22 12:13:56;;;;;;;1.95;1.85;;;48.70;22.10;;;;;;5072062;28;20025;-84
2023/06/22 12:16:21;;;;;;;1.77;1.67;;;48.80;22.00;;;;;;5053694;28;20048;-84
2023/06/22 12:18:48;;;;;;;2.00;1.77;;;48.80;21.90;;;;;;5071926;28;20468;-84
2023/06/22 12:21:13;;;;;;;2.10;2.00;;;48.90;22.50;;;;;;5071551;28;20012;-84
2023/06/22 12:23:39;;;;;;;2.85;2.20;;;49.20;21.10;;;;;;5071830;28;20609;-85
2023/06/22 12:26:05;;;;;;;2.72;2.00;;;49.30;21.90;;;;;;5071961;28;20020;-86
2023/06/22 12:28:30;;;;;;;2.30;2.00;;;48.90;21.40;;;;;;5072085;28;20499;-85
2023/06/22 12:30:56;;;;;;;2.20;2.00;;;48.40;22.40;;;;;;5054859;22;20045;-77
2023/06/22 12:33:21;;;;;;;3.45;2.58;;;48.30;22.80;;;;;;5032861;28;20482;-79
2023/06/22 12:35:48;;;;;;;2.95;2.20;;;48.20;23.00;;;;;;5032829;28;20625;-85
2023/06/22 12:38:14;;;;;;;2.50;2.30;;;48.20;22.90;;;;;;5042059;28;20116;-86